Share

Fairfield, IL

Fairfield Municipal (KFWC) Elev 436 ft | 38.38 °N, 88.41 °W | Change Station

Current weather conditions updated 16 minutes ago

Clear
Clear
66 °F
Feels Like 66 °F
N
0
Wind Variable Wind from North
Sunrise 6:10 AM
Sunset 7:34 PM
Moon Waning Gibbous

Tomorrow is forecast to be nearly the same temperature as today.

Pressure 30.10 in
Visibility 10.0 miles
Clouds Clear
Dew Point 48 °F
Humidity 52%
Rainfall 0.00 in
Snow Depth Not available.
UV 0 out of 16
Pollen 10.00 out of 12
Air Quality Not available.
Flu Activity Local Activity
METAR KFWC 210235Z AUTO 00000KT 10SM CLR 19/09 A3010 RMK AO2

More Conditions Fewer Conditions

Pressure 30.10 in
Visibility 10.0 miles
Clouds Clear
Dew Point 48 °F
Humidity 52%
Rainfall 0.00 in
Snow Depth Not available.
UV 0 out of 16
Pollen 10.00 out of 12
Air Quality Not available.
Flu Activity Local Activity
METAR KFWC 210235Z AUTO 00000KT 10SM CLR 19/09 A3010 RMK AO2

More Conditions Fewer Conditions

10-Day Weather Forecast

Almanac

Astronomy

Apr. 20, 2014 Rise Set
Actual Time 6:10 AM CDT 7:34 PM CDT
Civil Twilight 5:42 AM CDT 8:02 PM CDT
Nautical Twilight 5:09 AM CDT 8:35 PM CDT
Astronomical Twilight 4:34 AM CDT 9:10 PM CDT
Moon 12:12 AM CDT (4/20) 10:32 AM CDT (4/20)
Length of Visible Light 14h 19m
Length of Day
13h 24m
Tomorrow will be 2m 18s longer.
Waning Gibbous, 64% of the Moon is Illuminated
Today
Waning Gibbous
Apr 22
Last Quarter
Apr 29
New
May 6
First Quarter
May 14
Full

Today's Extremes

State Highs State Lows

Community

  • Sun Pillar and Geese
    Sun Pillar and Geese
  • Showers on the Way
    Showers on the Way
  • Easter Morning Fog
    Easter Morning Fog
  • Easter Dance
    Easter Dance
  • spring skiing mount Baker WA
    spring skiing mount Baker WA

WunderPhotos

Upload Photos

1,703,523 photos uploaded!

WunderBlogs® & News

Nearby

Snow Depth

Station Depth Elevation
No new snow has been reported.

Coastal Water Temperatures

Place Temperature
No Stations Reporting

Earthquake Activity

City Distance Mag. Time & Date
No recent earthquake activity has been reported nearby.
Minimum magnitude displayed is 2.5.

Nearby Weather Stations

Station Location Temp. Dew Point Humidity Wind Precip. Elev Updated Type
North of Baker's Garage, Albion, IL 67.2 °F 41 °F 39% East  at  1.0 mph 0.00 in / hr 490 ft 9:51 PM CDT Rapid Fire
Parkersburg/Wynoose, Olney, IL 57.9 °F 52 °F 82% ESE  at  0.0 mph 0.00 in / hr 418 ft 9:51 PM CDT Normal
Bluford, Bluford, IL 65.3 °F 48 °F 53% SE  at  2.0 mph 0.00 in / hr 515 ft 9:39 PM CDT Normal

Show More Stations Show Fewer Stations

What do you think?

We're not finished. Please let us know what you like, what you don't like, and what you are still missing.